^^
Station Historical Data
Daily Summary for June 25, 2017 Units:  Both    English   Metric
« Previous Day
Next Day »
Daily Weekly Monthly Yearly Custom
  High: Low: Average:
Temperature: 67.8 °F /  19.9 °C 42.3 °F /  5.7 °C 54.6 °F /  12.6 °C
Dew Point: 34.7 °F /  1.5 °C 28.0 °F /  -2.2 °C 31.5 °F /  -0.3 °C
Humidity: 63% 26% 43%
Wind Speed: 16.1mph /  25.9km/h - 1.3mph /  2.1km/h
Wind Gust: 16.1mph /  25.9km/h - -
Wind- - SE
Pressure: 30.37 in /  1028.3 hPa 30.25 in /  1024.3 hPa -
Precipitation: 0.00 in /  0 mm    
Historical Graphs
 
 
Tabular Data for June 25, 2017
Time Temperature Dew Point Pressure Wind Wind Speed Wind Gust Humidity Rainfall Rate (Hourly) solar Conditions
00:04 48.4 °F /  9.1 °C 28.0 °F /  -2.2 °C 30.35in /  1027.7hPa Calm     45% 0.00in /  0mm 0.0 W/m2
00:10 48.4 °F /  9.1 °C 28.0 °F /  -2.2 °C 30.35in /  1027.7hPa ENE 0.9mph /  1.4km/h 1.0mph /  1.6km/h 45% 0.00in /  0mm 0.0 W/m2
00:16 48.6 °F /  9.2 °C 28.2 °F /  -2.1 °C 30.35in /  1027.7hPa Calm     45% 0.00in /  0mm 0.0 W/m2
00:22 48.6 °F /  9.2 °C 28.2 °F /  -2.1 °C 30.35in /  1027.7hPa Calm   1.0mph /  1.6km/h 45% 0.00in /  0mm 0.0 W/m2
00:28 48.4 °F /  9.1 °C 28.6 °F /  -1.9 °C 30.34in /  1027.3hPa Calm   1.0mph /  1.6km/h 46% 0.00in /  0mm 0.0 W/m2
00:34 48.2 °F /  9 °C 28.4 °F /  -2 °C 30.35in /  1027.7hPa Calm     46% 0.00in /  0mm 0.0 W/m2
00:40 48.0 °F /  8.9 °C 28.8 °F /  -1.8 °C 30.34in /  1027.3hPa Calm   1.0mph /  1.6km/h 47% 0.00in /  0mm 0.0 W/m2
00:46 48.0 °F /  8.9 °C 28.8 °F /  -1.8 °C 30.34in /  1027.3hPa Calm   2.0mph /  3.2km/h 47% 0.00in /  0mm 0.0 W/m2
00:52 47.8 °F /  8.8 °C 28.6 °F /  -1.9 °C 30.34in /  1027.3hPa Calm     47% 0.00in /  0mm 0.0 W/m2
00:58 47.7 °F /  8.7 °C 28.4 °F /  -2 °C 30.34in /  1027.3hPa Calm   1.0mph /  1.6km/h 47% 0.00in /  0mm 0.0 W/m2
01:04 47.7 °F /  8.7 °C 28.9 °F /  -1.7 °C 30.34in /  1027.3hPa Calm   2.0mph /  3.2km/h 48% 0.00in /  0mm 0.0 W/m2
01:10 47.5 °F /  8.6 °C 28.8 °F /  -1.8 °C 30.33in /  1027hPa Calm     48% 0.00in /  0mm 0.0 W/m2
01:16 47.1 °F /  8.4 °C 28.4 °F /  -2 °C 30.33in /  1027hPa Calm     48% 0.00in /  0mm 0.0 W/m2
01:22 46.9 °F /  8.3 °C 28.8 °F /  -1.8 °C 30.33in /  1027hPa East 0.9mph /  1.4km/h 1.0mph /  1.6km/h 49% 0.00in /  0mm 0.0 W/m2
01:28 46.8 °F /  8.2 °C 28.6 °F /  -1.9 °C 30.33in /  1027hPa Calm   3.0mph /  4.8km/h 49% 0.00in /  0mm 0.0 W/m2
01:34 46.6 °F /  8.1 °C 28.9 °F /  -1.7 °C 30.33in /  1027hPa Calm     50% 0.00in /  0mm 0.0 W/m2
01:40 46.2 °F /  7.9 °C 29.1 °F /  -1.6 °C 30.33in /  1027hPa Calm     51% 0.00in /  0mm 0.0 W/m2
01:46 46.0 °F /  7.8 °C 28.9 °F /  -1.7 °C 30.33in /  1027hPa Calm   2.0mph /  3.2km/h 51% 0.00in /  0mm 0.0 W/m2
01:52 45.9 °F /  7.7 °C 29.3 °F /  -1.5 °C 30.32in /  1026.6hPa Calm     52% 0.00in /  0mm 0.0 W/m2
01:58 45.7 °F /  7.6 °C 29.1 °F /  -1.6 °C 30.32in /  1026.6hPa Calm     52% 0.00in /  0mm 0.0 W/m2
02:04 45.7 °F /  7.6 °C 29.1 °F /  -1.6 °C 30.32in /  1026.6hPa Calm     52% 0.00in /  0mm 0.0 W/m2
02:10 45.5 °F /  7.5 °C 28.9 °F /  -1.7 °C 30.33in /  1027hPa Calm     52% 0.00in /  0mm 0.0 W/m2
02:16 45.3 °F /  7.4 °C 29.1 °F /  -1.6 °C 30.33in /  1027hPa Calm   1.0mph /  1.6km/h 53% 0.00in /  0mm 0.0 W/m2
02:22 45.5 °F /  7.5 °C 29.3 °F /  -1.5 °C 30.33in /  1027hPa Calm     53% 0.00in /  0mm 0.0 W/m2
02:28 45.5 °F /  7.5 °C 29.3 °F /  -1.5 °C 30.33in /  1027hPa Calm     53% 0.00in /  0mm 0.0 W/m2
02:34 45.3 °F /  7.4 °C 29.1 °F /  -1.6 °C 30.33in /  1027hPa Calm     53% 0.00in /  0mm 0.0 W/m2
02:40 45.3 °F /  7.4 °C 29.1 °F /  -1.6 °C 30.33in /  1027hPa Calm     53% 0.00in /  0mm 0.0 W/m2
02:46 45.1 °F /  7.3 °C 29.5 °F /  -1.4 °C 30.33in /  1027hPa Calm     54% 0.00in /  0mm 0.0 W/m2
02:52 45.1 °F /  7.3 °C 29.5 °F /  -1.4 °C 30.33in /  1027hPa Calm     54% 0.00in /  0mm 0.0 W/m2
02:58 45.0 °F /  7.2 °C 29.3 °F /  -1.5 °C 30.33in /  1027hPa Calm     54% 0.00in /  0mm 0.0 W/m2
03:05 45.0 °F /  7.2 °C 29.3 °F /  -1.5 °C 30.33in /  1027hPa Calm   1.0mph /  1.6km/h 54% 0.00in /  0mm 0.0 W/m2
03:11 44.8 °F /  7.1 °C 29.7 °F /  -1.3 °C 30.33in /  1027hPa Calm   2.0mph /  3.2km/h 55% 0.00in /  0mm 0.0 W/m2
03:17 44.8 °F /  7.1 °C 29.7 °F /  -1.3 °C 30.32in /  1026.6hPa Calm     55% 0.00in /  0mm 0.0 W/m2
03:23 44.8 °F /  7.1 °C 29.7 °F /  -1.3 °C 30.33in /  1027hPa Calm   1.0mph /  1.6km/h 55% 0.00in /  0mm 0.0 W/m2
03:29 44.4 °F /  6.9 °C 29.7 °F /  -1.3 °C 30.32in /  1026.6hPa Calm     56% 0.00in /  0mm 0.0 W/m2
03:35 44.4 °F /  6.9 °C 29.7 °F /  -1.3 °C 30.32in /  1026.6hPa Calm     56% 0.00in /  0mm 0.0 W/m2
03:41 44.2 °F /  6.8 °C 29.5 °F /  -1.4 °C 30.32in /  1026.6hPa Calm     56% 0.00in /  0mm 0.0 W/m2
03:47 44.2 °F /  6.8 °C 29.5 °F /  -1.4 °C 30.32in /  1026.6hPa Calm     56% 0.00in /  0mm 0.0 W/m2
03:53 44.2 °F /  6.8 °C 30.0 °F /  -1.1 °C 30.33in /  1027hPa Calm     57% 0.00in /  0mm 0.0 W/m2
03:59 44.2 °F /  6.8 °C 30.0 °F /  -1.1 °C 30.33in /  1027hPa Calm     57% 0.00in /  0mm 0.0 W/m2
04:05 44.2 °F /  6.8 °C 30.0 °F /  -1.1 °C 30.32in /  1026.6hPa Calm     57% 0.00in /  0mm 0.0 W/m2
04:11 44.1 °F /  6.7 °C 29.8 °F /  -1.2 °C 30.32in /  1026.6hPa Calm     57% 0.00in /  0mm 0.0 W/m2
04:17 43.9 °F /  6.6 °C 29.7 °F /  -1.3 °C 30.32in /  1026.6hPa Calm     57% 0.00in /  0mm 0.0 W/m2
04:23 43.9 °F /  6.6 °C 30.0 °F /  -1.1 °C 30.32in /  1026.6hPa Calm     58% 0.00in /  0mm 0.0 W/m2
04:31 43.7 °F /  6.5 °C 29.8 °F /  -1.2 °C 30.32in /  1026.6hPa Calm     58% 0.00in /  0mm 0.0 W/m2
04:37 43.5 °F /  6.4 °C 29.7 °F /  -1.3 °C 30.32in /  1026.6hPa Calm     58% 0.00in /  0mm 0.0 W/m2
04:43 43.3 °F /  6.3 °C 30.0 °F /  -1.1 °C 30.32in /  1026.6hPa Calm     59% 0.00in /  0mm 0.0 W/m2
04:49 43.2 °F /  6.2 °C 29.8 °F /  -1.2 °C 30.32in /  1026.6hPa Calm     59% 0.00in /  0mm 0.0 W/m2
04:55 43.0 °F /  6.1 °C 29.7 °F /  -1.3 °C 30.33in /  1027hPa Calm     59% 0.00in /  0mm 0.0 W/m2
05:01 43.0 °F /  6.1 °C 30.0 °F /  -1.1 °C 30.32in /  1026.6hPa Calm     60% 0.00in /  0mm 0.0 W/m2
05:07 42.6 °F /  5.9 °C 29.7 °F /  -1.3 °C 30.33in /  1027hPa Calm     60% 0.00in /  0mm 0.0 W/m2
05:13 42.6 °F /  5.9 °C 30.2 °F /  -1 °C 30.33in /  1027hPa Calm     61% 0.00in /  0mm 0.0 W/m2
05:19 42.4 °F /  5.8 °C 30.0 °F /  -1.1 °C 30.33in /  1027hPa Calm     61% 0.00in /  0mm 0.0 W/m2
05:25 42.4 °F /  5.8 °C 30.0 °F /  -1.1 °C 30.33in /  1027hPa Calm     61% 0.00in /  0mm 0.0 W/m2
05:31 42.4 °F /  5.8 °C 30.0 °F /  -1.1 °C 30.33in /  1027hPa Calm     61% 0.00in /  0mm 0.0 W/m2
05:37 42.3 °F /  5.7 °C 29.8 °F /  -1.2 °C 30.33in /  1027hPa Calm     61% 0.00in /  0mm 0.0 W/m2
05:45 42.3 °F /  5.7 °C 29.8 °F /  -1.2 °C 30.33in /  1027hPa Calm   2.0mph /  3.2km/h 61% 0.00in /  0mm 0.0 W/m2
05:51 42.3 °F /  5.7 °C 29.8 °F /  -1.2 °C 30.33in /  1027hPa Calm     61% 0.00in /  0mm 0.0 W/m2
05:57 42.4 °F /  5.8 °C 30.0 °F /  -1.1 °C 30.34in /  1027.3hPa Calm     61% 0.00in /  0mm 0.0 W/m2
06:03 42.4 °F /  5.8 °C 30.0 °F /  -1.1 °C 30.34in /  1027.3hPa Calm   1.0mph /  1.6km/h 61% 0.00in /  0mm 0.0 W/m2
06:09 42.4 °F /  5.8 °C 30.4 °F /  -0.9 °C 30.34in /  1027.3hPa NNE 0.9mph /  1.4km/h 2.0mph /  3.2km/h 62% 0.00in /  0mm 0.0 W/m2
06:15 42.6 °F /  5.9 °C 30.2 °F /  -1 °C 30.34in /  1027.3hPa Calm   1.0mph /  1.6km/h 61% 0.00in /  0mm 0.0 W/m2
06:21 42.6 °F /  5.9 °C 30.2 °F /  -1 °C 30.35in /  1027.7hPa Calm   1.0mph /  1.6km/h 61% 0.00in /  0mm 0.0 W/m2
06:27 42.6 °F /  5.9 °C 30.6 °F /  -0.8 °C 30.35in /  1027.7hPa Calm     62% 0.00in /  0mm 0.0 W/m2
06:33 42.6 °F /  5.9 °C 30.6 °F /  -0.8 °C 30.35in /  1027.7hPa Calm     62% 0.00in /  0mm 0.0 W/m2
06:39 43.0 °F /  6.1 °C 31.3 °F /  -0.4 °C 30.35in /  1027.7hPa Calm   4.0mph /  6.4km/h 63% 0.00in /  0mm 5.0 W/m2
06:45 43.5 °F /  6.4 °C 31.3 °F /  -0.4 °C 30.35in /  1027.7hPa Calm   2.0mph /  3.2km/h 62% 0.00in /  0mm 9.0 W/m2
06:51 43.9 °F /  6.6 °C 31.6 °F /  -0.2 °C 30.35in /  1027.7hPa Calm   3.0mph /  4.8km/h 62% 0.00in /  0mm 11.0 W/m2
06:57 44.4 °F /  6.9 °C 31.8 °F /  -0.1 °C 30.35in /  1027.7hPa Calm   3.0mph /  4.8km/h 61% 0.00in /  0mm 12.0 W/m2
07:03 45.0 °F /  7.2 °C 32.0 °F /  0 °C 30.35in /  1027.7hPa Calm   1.0mph /  1.6km/h 60% 0.00in /  0mm 14.0 W/m2
07:09 45.1 °F /  7.3 °C 32.0 °F /  0 °C 30.35in /  1027.7hPa Calm   2.0mph /  3.2km/h 60% 0.00in /  0mm 16.0 W/m2
07:15 45.7 °F /  7.6 °C 32.2 °F /  0.1 °C 30.35in /  1027.7hPa Calm   3.0mph /  4.8km/h 59% 0.00in /  0mm 18.0 W/m2
07:21 46.2 °F /  7.9 °C 32.2 °F /  0.1 °C 30.35in /  1027.7hPa Calm   2.0mph /  3.2km/h 58% 0.00in /  0mm 19.0 W/m2
07:27 46.8 °F /  8.2 °C 32.7 °F /  0.4 °C 30.35in /  1027.7hPa Calm   2.0mph /  3.2km/h 58% 0.00in /  0mm 21.0 W/m2
07:33 47.1 °F /  8.4 °C 32.7 °F /  0.4 °C 30.35in /  1027.7hPa Calm   1.0mph /  1.6km/h 57% 0.00in /  0mm 23.0 W/m2
07:39 47.8 °F /  8.8 °C 32.9 °F /  0.5 °C 30.36in /  1028hPa ESE 2.9mph /  4.7km/h 6.0mph /  9.7km/h 56% 0.00in /  0mm 25.0 W/m2
07:45 48.4 °F /  9.1 °C 32.9 °F /  0.5 °C 30.36in /  1028hPa Calm   6.0mph /  9.7km/h 55% 0.00in /  0mm 26.0 W/m2
07:51 49.1 °F /  9.5 °C 33.3 °F /  0.7 °C 30.36in /  1028hPa ENE 2.9mph /  4.7km/h 3.0mph /  4.8km/h 54% 0.00in /  0mm 32.0 W/m2
07:58 50.4 °F /  10.2 °C 33.4 °F /  0.8 °C 30.36in /  1028hPa ENE 2.9mph /  4.7km/h 4.0mph /  6.4km/h 52% 0.00in /  0mm 237.0 W/m2
08:04 51.8 °F /  11 °C 33.8 °F /  1 °C 30.36in /  1028hPa Calm   4.0mph /  6.4km/h 50% 0.00in /  0mm 274.0 W/m2
08:10 53.1 °F /  11.7 °C 33.8 °F /  1 °C 30.36in /  1028hPa Calm   4.0mph /  6.4km/h 48% 0.00in /  0mm 292.0 W/m2
08:16 54.0 °F /  12.2 °C 34.2 °F /  1.2 °C 30.36in /  1028hPa NNE 0.9mph /  1.4km/h 5.0mph /  8km/h 47% 0.00in /  0mm 306.0 W/m2
08:22 55.6 °F /  13.1 °C 34.0 °F /  1.1 °C 30.36in /  1028hPa Calm   5.0mph /  8km/h 44% 0.00in /  0mm 330.0 W/m2
08:28 56.5 °F /  13.6 °C 34.3 °F /  1.3 °C 30.36in /  1028hPa NE 4.0mph /  6.4km/h 6.0mph /  9.7km/h 43% 0.00in /  0mm 348.0 W/m2
08:36 57.6 °F /  14.2 °C 34.7 °F /  1.5 °C 30.37in /  1028.3hPa East 4.0mph /  6.4km/h 7.0mph /  11.3km/h 42% 0.00in /  0mm 374.0 W/m2
08:42 58.5 °F /  14.7 °C 34.2 °F /  1.2 °C 30.37in /  1028.3hPa ENE 6.0mph /  9.7km/h 6.0mph /  9.7km/h 40% 0.00in /  0mm 392.0 W/m2
08:48 59.4 °F /  15.2 °C 34.3 °F /  1.3 °C 30.37in /  1028.3hPa ENE 6.0mph /  9.7km/h 13.0mph /  20.9km/h 39% 0.00in /  0mm 410.0 W/m2
08:55 59.5 °F /  15.3 °C 34.0 °F /  1.1 °C 30.37in /  1028.3hPa ENE 2.0mph /  3.2km/h 10.0mph /  16.1km/h 38% 0.00in /  0mm 429.0 W/m2
09:01 59.7 °F /  15.4 °C 33.4 °F /  0.8 °C 30.37in /  1028.3hPa NE 2.0mph /  3.2km/h 12.0mph /  19.3km/h 37% 0.00in /  0mm 443.0 W/m2
09:06 60.3 °F /  15.7 °C 33.8 °F /  1 °C 30.37in /  1028.3hPa ESE 2.9mph /  4.7km/h 12.0mph /  19.3km/h 37% 0.00in /  0mm 459.0 W/m2
09:13 60.4 °F /  15.8 °C 34.0 °F /  1.1 °C 30.37in /  1028.3hPa NNE 11.0mph /  17.7km/h 15.0mph /  24.1km/h 37% 0.00in /  0mm 473.0 W/m2
09:19 60.6 °F /  15.9 °C 34.2 °F /  1.2 °C 30.37in /  1028.3hPa East 2.9mph /  4.7km/h 10.0mph /  16.1km/h 37% 0.00in /  0mm 489.0 W/m2
09:25 61.0 °F /  16.1 °C 33.1 °F /  0.6 °C 30.37in /  1028.3hPa NW 4.0mph /  6.4km/h 11.0mph /  17.7km/h 35% 0.00in /  0mm 510.0 W/m2
09:31 61.2 °F /  16.2 °C 33.3 °F /  0.7 °C 30.37in /  1028.3hPa North 4.9mph /  7.9km/h 7.0mph /  11.3km/h 35% 0.00in /  0mm 522.0 W/m2
09:37 61.7 °F /  16.5 °C 33.1 °F /  0.6 °C 30.37in /  1028.3hPa NNE 8.1mph /  13km/h 11.0mph /  17.7km/h 34% 0.00in /  0mm 534.0 W/m2
09:43 61.9 °F /  16.6 °C 33.3 °F /  0.7 °C 30.37in /  1028.3hPa NNE 2.0mph /  3.2km/h 9.0mph /  14.5km/h 34% 0.00in /  0mm 545.0 W/m2
09:49 62.4 °F /  16.9 °C 34.3 °F /  1.3 °C 30.37in /  1028.3hPa North 6.0mph /  9.7km/h 13.0mph /  20.9km/h 35% 0.00in /  0mm 557.0 W/m2
09:56 62.8 °F /  17.1 °C 33.3 °F /  0.7 °C 30.36in /  1028hPa NNW 8.1mph /  13km/h 10.0mph /  16.1km/h 33% 0.00in /  0mm 570.0 W/m2
10:01 63.0 °F /  17.2 °C 33.4 °F /  0.8 °C 30.37in /  1028.3hPa NNW 2.9mph /  4.7km/h 6.0mph /  9.7km/h 33% 0.00in /  0mm 577.0 W/m2
10:06 63.1 °F /  17.3 °C 32.7 °F /  0.4 °C 30.37in /  1028.3hPa NNE 8.9mph /  14.3km/h 12.0mph /  19.3km/h 32% 0.00in /  0mm 589.0 W/m2
10:12 63.0 °F /  17.2 °C 32.7 °F /  0.4 °C 30.37in /  1028.3hPa North 2.9mph /  4.7km/h 9.0mph /  14.5km/h 32% 0.00in /  0mm 596.0 W/m2
10:17 63.1 °F /  17.3 °C 33.6 °F /  0.9 °C 30.36in /  1028hPa ENE 0.9mph /  1.4km/h 10.0mph /  16.1km/h 33% 0.00in /  0mm 603.0 W/m2
10:23 63.7 °F /  17.6 °C 34.0 °F /  1.1 °C 30.36in /  1028hPa Calm   9.0mph /  14.5km/h 33% 0.00in /  0mm 617.0 W/m2
10:30 63.9 °F /  17.7 °C 32.7 °F /  0.4 °C 30.36in /  1028hPa NE 2.0mph /  3.2km/h 9.0mph /  14.5km/h 31% 0.00in /  0mm 624.0 W/m2
10:36 63.9 °F /  17.7 °C 32.7 °F /  0.4 °C 30.35in /  1027.7hPa North 4.0mph /  6.4km/h 7.0mph /  11.3km/h 31% 0.00in /  0mm 633.0 W/m2
10:42 64.0 °F /  17.8 °C 32.7 °F /  0.4 °C 30.36in /  1028hPa North 16.1mph /  25.9km/h 16.1mph /  25.9km/h 31% 0.00in /  0mm 640.0 W/m2
10:48 64.2 °F /  17.9 °C 32.9 °F /  0.5 °C 30.35in /  1027.7hPa NNW 10.1mph /  16.3km/h 10.1mph /  16.3km/h 31% 0.00in /  0mm 645.0 W/m2
10:54 64.2 °F /  17.9 °C 32.9 °F /  0.5 °C 30.35in /  1027.7hPa ENE 2.9mph /  4.7km/h 10.0mph /  16.1km/h 31% 0.00in /  0mm 654.0 W/m2
11:01 64.2 °F /  17.9 °C 32.9 °F /  0.5 °C 30.35in /  1027.7hPa NNE 2.9mph /  4.7km/h 8.0mph /  12.9km/h 31% 0.00in /  0mm 663.0 W/m2
11:07 64.9 °F /  18.3 °C 33.6 °F /  0.9 °C 30.34in /  1027.3hPa NE 4.0mph /  6.4km/h 10.0mph /  16.1km/h 31% 0.00in /  0mm 666.0 W/m2
11:12 65.3 °F /  18.5 °C 33.8 °F /  1 °C 30.34in /  1027.3hPa North 2.0mph /  3.2km/h 10.0mph /  16.1km/h 31% 0.00in /  0mm 668.0 W/m2
11:18 65.5 °F /  18.6 °C 34.0 °F /  1.1 °C 30.33in /  1027hPa North 4.0mph /  6.4km/h 4.0mph /  6.4km/h 31% 0.00in /  0mm 668.0 W/m2
11:25 65.7 °F /  18.7 °C 33.4 °F /  0.8 °C 30.33in /  1027hPa NNW 0.9mph /  1.4km/h 6.0mph /  9.7km/h 30% 0.00in /  0mm 679.0 W/m2
11:31 65.8 °F /  18.8 °C 32.7 °F /  0.4 °C 30.33in /  1027hPa North 6.0mph /  9.7km/h 13.0mph /  20.9km/h 29% 0.00in /  0mm 682.0 W/m2
11:37 65.7 °F /  18.7 °C 33.4 °F /  0.8 °C 30.33in /  1027hPa North 2.9mph /  4.7km/h 10.0mph /  16.1km/h 30% 0.00in /  0mm 670.0 W/m2
11:43 66.0 °F /  18.9 °C 32.0 °F /  0 °C 30.33in /  1027hPa NNE 8.1mph /  13km/h 13.0mph /  20.9km/h 28% 0.00in /  0mm 686.0 W/m2
11:49 66.0 °F /  18.9 °C 32.9 °F /  0.5 °C 30.32in /  1026.6hPa NE 6.0mph /  9.7km/h 8.0mph /  12.9km/h 29% 0.00in /  0mm 680.0 W/m2
11:55 66.4 °F /  19.1 °C 33.1 °F /  0.6 °C 30.32in /  1026.6hPa North 4.0mph /  6.4km/h 7.0mph /  11.3km/h 29% 0.00in /  0mm 680.0 W/m2
12:01 66.7 °F /  19.3 °C 33.4 °F /  0.8 °C 30.32in /  1026.6hPa NNE 2.0mph /  3.2km/h 8.0mph /  12.9km/h 29% 0.00in /  0mm 670.0 W/m2
12:07 66.9 °F /  19.4 °C 32.7 °F /  0.4 °C 30.31in /  1026.3hPa Calm   7.0mph /  11.3km/h 28% 0.00in /  0mm 677.0 W/m2
12:14 67.3 °F /  19.6 °C 32.2 °F /  0.1 °C 30.31in /  1026.3hPa NNW 0.9mph /  1.4km/h 7.0mph /  11.3km/h 27% 0.00in /  0mm 675.0 W/m2
12:20 67.3 °F /  19.6 °C 32.2 °F /  0.1 °C 30.31in /  1026.3hPa Calm   5.0mph /  8km/h 27% 0.00in /  0mm 663.0 W/m2
12:26 67.3 °F /  19.6 °C 33.1 °F /  0.6 °C 30.30in /  1026hPa NNW 6.9mph /  11.1km/h 7.0mph /  11.3km/h 28% 0.00in /  0mm 661.0 W/m2
12:32 67.5 °F /  19.7 °C 33.3 °F /  0.7 °C 30.30in /  1026hPa North 4.0mph /  6.4km/h 5.0mph /  8km/h 28% 0.00in /  0mm 659.0 W/m2
12:38 67.6 °F /  19.8 °C 34.2 °F /  1.2 °C 30.30in /  1026hPa North 0.9mph /  1.4km/h 7.0mph /  11.3km/h 29% 0.00in /  0mm 650.0 W/m2
12:44 67.6 °F /  19.8 °C 34.2 °F /  1.2 °C 30.29in /  1025.6hPa NNW 2.0mph /  3.2km/h 6.0mph /  9.7km/h 29% 0.00in /  0mm 643.0 W/m2
12:50 67.6 °F /  19.8 °C 34.2 °F /  1.2 °C 30.28in /  1025.3hPa Calm   2.0mph /  3.2km/h 29% 0.00in /  0mm 647.0 W/m2
12:56 67.8 °F /  19.9 °C 33.4 °F /  0.8 °C 30.28in /  1025.3hPa NE 4.0mph /  6.4km/h 12.0mph /  19.3km/h 28% 0.00in /  0mm 633.0 W/m2
13:02 67.8 °F /  19.9 °C 33.4 °F /  0.8 °C 30.28in /  1025.3hPa NNE 0.9mph /  1.4km/h 7.0mph /  11.3km/h 28% 0.00in /  0mm 626.0 W/m2
13:08 67.8 °F /  19.9 °C 32.5 °F /  0.3 °C 30.27in /  1024.9hPa Calm   7.0mph /  11.3km/h 27% 0.00in /  0mm 615.0 W/m2
13:14 67.6 °F /  19.8 °C 32.5 °F /  0.3 °C 30.27in /  1024.9hPa NNW 2.9mph /  4.7km/h 10.0mph /  16.1km/h 27% 0.00in /  0mm 613.0 W/m2
13:20 67.6 °F /  19.8 °C 32.5 °F /  0.3 °C 30.27in /  1024.9hPa NNE 4.0mph /  6.4km/h 11.0mph /  17.7km/h 27% 0.00in /  0mm 603.0 W/m2
13:26 67.5 °F /  19.7 °C 33.3 °F /  0.7 °C 30.27in /  1024.9hPa NE 4.0mph /  6.4km/h 13.0mph /  20.9km/h 28% 0.00in /  0mm 591.0 W/m2
13:32 67.5 °F /  19.7 °C 32.4 °F /  0.2 °C 30.27in /  1024.9hPa North 6.0mph /  9.7km/h 12.0mph /  19.3km/h 27% 0.00in /  0mm 584.0 W/m2
13:38 67.3 °F /  19.6 °C 32.2 °F /  0.1 °C 30.26in /  1024.6hPa NE 4.0mph /  6.4km/h 8.0mph /  12.9km/h 27% 0.00in /  0mm 568.0 W/m2
13:44 67.3 °F /  19.6 °C 33.1 °F /  0.6 °C 30.26in /  1024.6hPa NNE 2.0mph /  3.2km/h 6.0mph /  9.7km/h 28% 0.00in /  0mm 559.0 W/m2
13:51 67.5 °F /  19.7 °C 32.4 °F /  0.2 °C 30.26in /  1024.6hPa Calm   9.0mph /  14.5km/h 27% 0.00in /  0mm 547.0 W/m2
13:58 67.5 °F /  19.7 °C 32.4 °F /  0.2 °C 30.26in /  1024.6hPa NE 2.9mph /  4.7km/h 8.0mph /  12.9km/h 27% 0.00in /  0mm 529.0 W/m2
14:04 67.5 °F /  19.7 °C 32.4 °F /  0.2 °C 30.26in /  1024.6hPa ENE 4.0mph /  6.4km/h 10.0mph /  16.1km/h 27% 0.00in /  0mm 519.0 W/m2
14:11 67.5 °F /  19.7 °C 32.4 °F /  0.2 °C 30.26in /  1024.6hPa ENE 2.0mph /  3.2km/h 8.0mph /  12.9km/h 27% 0.00in /  0mm 504.0 W/m2
14:16 67.6 °F /  19.8 °C 32.5 °F /  0.3 °C 30.25in /  1024.3hPa ENE 2.9mph /  4.7km/h 7.0mph /  11.3km/h 27% 0.00in /  0mm 485.0 W/m2
14:22 67.8 °F /  19.9 °C 31.6 °F /  -0.2 °C 30.25in /  1024.3hPa NNW 2.0mph /  3.2km/h 11.0mph /  17.7km/h 26% 0.00in /  0mm 471.0 W/m2
14:28 67.6 °F /  19.8 °C 32.5 °F /  0.3 °C 30.25in /  1024.3hPa NNW 4.9mph /  7.9km/h 11.0mph /  17.7km/h 27% 0.00in /  0mm 462.0 W/m2
14:35 67.5 °F /  19.7 °C 32.4 °F /  0.2 °C 30.25in /  1024.3hPa North 0.9mph /  1.4km/h 8.0mph /  12.9km/h 27% 0.00in /  0mm 443.0 W/m2
14:41 67.3 °F /  19.6 °C 32.2 °F /  0.1 °C 30.25in /  1024.3hPa Calm   3.0mph /  4.8km/h 27% 0.00in /  0mm 431.0 W/m2
14:47 67.5 °F /  19.7 °C 32.4 °F /  0.2 °C 30.25in /  1024.3hPa ENE 0.9mph /  1.4km/h 8.0mph /  12.9km/h 27% 0.00in /  0mm 410.0 W/m2
14:53 67.5 °F /  19.7 °C 32.4 °F /  0.2 °C 30.25in /  1024.3hPa East 6.9mph /  11.1km/h 11.0mph /  17.7km/h 27% 0.00in /  0mm 397.0 W/m2
14:59 67.3 °F /  19.6 °C 32.2 °F /  0.1 °C 30.25in /  1024.3hPa ESE 2.9mph /  4.7km/h 4.0mph /  6.4km/h 27% 0.00in /  0mm 378.0 W/m2
15:05 66.9 °F /  19.4 °C 31.8 °F /  -0.1 °C 30.25in /  1024.3hPa NE 2.0mph /  3.2km/h 2.0mph /  3.2km/h 27% 0.00in /  0mm 357.0 W/m2
15:11 67.3 °F /  19.6 °C 32.2 °F /  0.1 °C 30.25in /  1024.3hPa East 6.0mph /  9.7km/h 7.0mph /  11.3km/h 27% 0.00in /  0mm 329.0 W/m2
15:18 66.9 °F /  19.4 °C 31.8 °F /  -0.1 °C 30.25in /  1024.3hPa North 4.9mph /  7.9km/h 7.0mph /  11.3km/h 27% 0.00in /  0mm 322.0 W/m2
15:23 66.6 °F /  19.2 °C 32.4 °F /  0.2 °C 30.26in /  1024.6hPa NE 4.0mph /  6.4km/h 7.0mph /  11.3km/h 28% 0.00in /  0mm 58.0 W/m2
15:29 66.4 °F /  19.1 °C 32.4 °F /  0.2 °C 30.26in /  1024.6hPa Calm   3.0mph /  4.8km/h 28% 0.00in /  0mm 53.0 W/m2
15:35 66.2 °F /  19 °C 33.1 °F /  0.6 °C 30.26in /  1024.6hPa NNE 2.9mph /  4.7km/h 4.0mph /  6.4km/h 29% 0.00in /  0mm 51.0 W/m2
15:41 66.0 °F /  18.9 °C 32.9 °F /  0.5 °C 30.26in /  1024.6hPa North 2.0mph /  3.2km/h 5.0mph /  8km/h 29% 0.00in /  0mm 49.0 W/m2
15:47 65.8 °F /  18.8 °C 32.7 °F /  0.4 °C 30.26in /  1024.6hPa North 8.1mph /  13km/h 8.1mph /  13km/h 29% 0.00in /  0mm 46.0 W/m2
15:54 65.8 °F /  18.8 °C 32.7 °F /  0.4 °C 30.26in /  1024.6hPa North 0.9mph /  1.4km/h 5.0mph /  8km/h 29% 0.00in /  0mm 44.0 W/m2
16:00 65.5 °F /  18.6 °C 33.3 °F /  0.7 °C 30.26in /  1024.6hPa NNE 0.9mph /  1.4km/h 7.0mph /  11.3km/h 30% 0.00in /  0mm 40.0 W/m2
16:06 65.1 °F /  18.4 °C 32.9 °F /  0.5 °C 30.27in /  1024.9hPa North 0.9mph /  1.4km/h 6.0mph /  9.7km/h 30% 0.00in /  0mm 37.0 W/m2
16:12 64.9 °F /  18.3 °C 32.7 °F /  0.4 °C 30.26in /  1024.6hPa Calm   7.0mph /  11.3km/h 30% 0.00in /  0mm 32.0 W/m2
16:18 64.8 °F /  18.2 °C 32.5 °F /  0.3 °C 30.27in /  1024.9hPa NNW 0.9mph /  1.4km/h 4.0mph /  6.4km/h 30% 0.00in /  0mm 30.0 W/m2
16:24 64.6 °F /  18.1 °C 33.3 °F /  0.7 °C 30.27in /  1024.9hPa East 4.0mph /  6.4km/h 7.0mph /  11.3km/h 31% 0.00in /  0mm 30.0 W/m2
16:30 64.2 °F /  17.9 °C 32.9 °F /  0.5 °C 30.27in /  1024.9hPa NNW 2.0mph /  3.2km/h 7.0mph /  11.3km/h 31% 0.00in /  0mm 26.0 W/m2
16:36 64.0 °F /  17.8 °C 32.7 °F /  0.4 °C 30.27in /  1024.9hPa NE 0.9mph /  1.4km/h 4.0mph /  6.4km/h 31% 0.00in /  0mm 25.0 W/m2
16:42 63.9 °F /  17.7 °C 33.4 °F /  0.8 °C 30.27in /  1024.9hPa NNW 0.9mph /  1.4km/h 3.0mph /  4.8km/h 32% 0.00in /  0mm 21.0 W/m2
16:48 63.7 °F /  17.6 °C 32.5 °F /  0.3 °C 30.27in /  1024.9hPa Calm   5.0mph /  8km/h 31% 0.00in /  0mm 19.0 W/m2
16:54 63.3 °F /  17.4 °C 32.9 °F /  0.5 °C 30.28in /  1025.3hPa Calm   3.0mph /  4.8km/h 32% 0.00in /  0mm 16.0 W/m2
17:00 63.1 °F /  17.3 °C 32.7 °F /  0.4 °C 30.28in /  1025.3hPa North 0.9mph /  1.4km/h 1.0mph /  1.6km/h 32% 0.00in /  0mm 12.0 W/m2
17:06 62.8 °F /  17.1 °C 32.5 °F /  0.3 °C 30.28in /  1025.3hPa Calm     32% 0.00in /  0mm 9.0 W/m2
17:13 62.4 °F /  16.9 °C 32.2 °F /  0.1 °C 30.28in /  1025.3hPa NE 2.9mph /  4.7km/h 4.0mph /  6.4km/h 32% 0.00in /  0mm 5.0 W/m2
17:19 62.1 °F /  16.7 °C 32.5 °F /  0.3 °C 30.28in /  1025.3hPa Calm   6.0mph /  9.7km/h 33% 0.00in /  0mm 0.0 W/m2
17:25 61.7 °F /  16.5 °C 32.4 °F /  0.2 °C 30.29in /  1025.6hPa Calm   3.0mph /  4.8km/h 33% 0.00in /  0mm 0.0 W/m2
17:31 61.3 °F /  16.3 °C 32.0 °F /  0 °C 30.29in /  1025.6hPa Calm   6.0mph /  9.7km/h 33% 0.00in /  0mm 0.0 W/m2
17:37 61.0 °F /  16.1 °C 32.4 °F /  0.2 °C 30.29in /  1025.6hPa Calm     34% 0.00in /  0mm 0.0 W/m2
17:43 60.4 °F /  15.8 °C 32.0 °F /  0 °C 30.30in /  1026hPa Calm     34% 0.00in /  0mm 0.0 W/m2
17:50 60.1 °F /  15.6 °C 32.4 °F /  0.2 °C 30.30in /  1026hPa Calm     35% 0.00in /  0mm 0.0 W/m2
17:56 59.5 °F /  15.3 °C 31.8 °F /  -0.1 °C 30.30in /  1026hPa Calm     35% 0.00in /  0mm 0.0 W/m2
18:02 59.2 °F /  15.1 °C 32.2 °F /  0.1 °C 30.30in /  1026hPa Calm     36% 0.00in /  0mm 0.0 W/m2
18:08 58.6 °F /  14.8 °C 32.4 °F /  0.2 °C 30.31in /  1026.3hPa Calm     37% 0.00in /  0mm 0.0 W/m2
18:14 58.3 °F /  14.6 °C 32.2 °F /  0.1 °C 30.31in /  1026.3hPa Calm     37% 0.00in /  0mm 0.0 W/m2
18:20 57.9 °F /  14.4 °C 32.5 °F /  0.3 °C 30.32in /  1026.6hPa Calm     38% 0.00in /  0mm 0.0 W/m2
18:26 57.6 °F /  14.2 °C 32.2 °F /  0.1 °C 30.32in /  1026.6hPa Calm     38% 0.00in /  0mm 0.0 W/m2
18:33 57.4 °F /  14.1 °C 32.0 °F /  0 °C 30.33in /  1027hPa Calm     38% 0.00in /  0mm 0.0 W/m2
18:40 57.0 °F /  13.9 °C 32.4 °F /  0.2 °C 30.33in /  1027hPa Calm     39% 0.00in /  0mm 0.0 W/m2
18:47 56.7 °F /  13.7 °C 32.0 °F /  0 °C 30.33in /  1027hPa Calm     39% 0.00in /  0mm 0.0 W/m2
18:53 56.1 °F /  13.4 °C 32.2 °F /  0.1 °C 30.33in /  1027hPa Calm     40% 0.00in /  0mm 0.0 W/m2
18:59 55.6 °F /  13.1 °C 31.6 °F /  -0.2 °C 30.33in /  1027hPa Calm   1.0mph /  1.6km/h 40% 0.00in /  0mm 0.0 W/m2
19:05 55.2 °F /  12.9 °C 32.0 °F /  0 °C 30.33in /  1027hPa Calm     41% 0.00in /  0mm 0.0 W/m2
19:11 54.9 °F /  12.7 °C 32.2 °F /  0.1 °C 30.34in /  1027.3hPa Calm     42% 0.00in /  0mm 0.0 W/m2
19:17 54.3 °F /  12.4 °C 31.6 °F /  -0.2 °C 30.33in /  1027hPa Calm     42% 0.00in /  0mm 0.0 W/m2
19:23 54.1 °F /  12.3 °C 31.5 °F /  -0.3 °C 30.34in /  1027.3hPa Calm   2.0mph /  3.2km/h 42% 0.00in /  0mm 0.0 W/m2
19:29 53.8 °F /  12.1 °C 31.8 °F /  -0.1 °C 30.34in /  1027.3hPa Calm     43% 0.00in /  0mm 0.0 W/m2
19:35 53.4 °F /  11.9 °C 31.5 °F /  -0.3 °C 30.34in /  1027.3hPa Calm   1.0mph /  1.6km/h 43% 0.00in /  0mm 0.0 W/m2
19:41 53.1 °F /  11.7 °C 31.6 °F /  -0.2 °C 30.34in /  1027.3hPa Calm     44% 0.00in /  0mm 0.0 W/m2
19:47 52.9 °F /  11.6 °C 31.6 °F /  -0.2 °C 30.34in /  1027.3hPa Calm     44% 0.00in /  0mm 0.0 W/m2
19:54 52.5 °F /  11.4 °C 31.3 °F /  -0.4 °C 30.34in /  1027.3hPa Calm     44% 0.00in /  0mm 0.0 W/m2
20:00 52.2 °F /  11.2 °C 31.5 °F /  -0.3 °C 30.34in /  1027.3hPa Calm     45% 0.00in /  0mm 0.0 W/m2
20:06 52.0 °F /  11.1 °C 31.3 °F /  -0.4 °C 30.34in /  1027.3hPa Calm     45% 0.00in /  0mm 0.0 W/m2
20:12 51.6 °F /  10.9 °C 31.5 °F /  -0.3 °C 30.34in /  1027.3hPa Calm     46% 0.00in /  0mm 0.0 W/m2
20:18 51.4 °F /  10.8 °C 31.3 °F /  -0.4 °C 30.34in /  1027.3hPa Calm     46% 0.00in /  0mm 0.0 W/m2
20:24 51.1 °F /  10.6 °C 31.1 °F /  -0.5 °C 30.34in /  1027.3hPa Calm   1.0mph /  1.6km/h 46% 0.00in /  0mm 0.0 W/m2
20:31 50.9 °F /  10.5 °C 31.5 °F /  -0.3 °C 30.34in /  1027.3hPa Calm     47% 0.00in /  0mm 0.0 W/m2
20:37 50.7 °F /  10.4 °C 31.3 °F /  -0.4 °C 30.34in /  1027.3hPa Calm     47% 0.00in /  0mm 0.0 W/m2
20:43 50.5 °F /  10.3 °C 31.1 °F /  -0.5 °C 30.34in /  1027.3hPa Calm     47% 0.00in /  0mm 0.0 W/m2
20:49 50.4 °F /  10.2 °C 30.9 °F /  -0.6 °C 30.35in /  1027.7hPa Calm     47% 0.00in /  0mm 0.0 W/m2
20:55 50.2 °F /  10.1 °C 31.3 °F /  -0.4 °C 30.35in /  1027.7hPa Calm     48% 0.00in /  0mm 0.0 W/m2
21:01 49.8 °F /  9.9 °C 30.9 °F /  -0.6 °C 30.35in /  1027.7hPa Calm     48% 0.00in /  0mm 0.0 W/m2
21:07 49.8 °F /  9.9 °C 30.9 °F /  -0.6 °C 30.35in /  1027.7hPa Calm   1.0mph /  1.6km/h 48% 0.00in /  0mm 0.0 W/m2
21:14 49.8 °F /  9.9 °C 30.4 °F /  -0.9 °C 30.35in /  1027.7hPa Calm     47% 0.00in /  0mm 0.0 W/m2
21:20 49.8 °F /  9.9 °C 30.4 °F /  -0.9 °C 30.35in /  1027.7hPa Calm   1.0mph /  1.6km/h 47% 0.00in /  0mm 0.0 W/m2
21:26 50.0 °F /  10 °C 30.6 °F /  -0.8 °C 30.35in /  1027.7hPa Calm   1.0mph /  1.6km/h 47% 0.00in /  0mm 0.0 W/m2
21:32 50.0 °F /  10 °C 30.6 °F /  -0.8 °C 30.35in /  1027.7hPa Calm     47% 0.00in /  0mm 0.0 W/m2
21:38 49.8 °F /  9.9 °C 30.4 °F /  -0.9 °C 30.35in /  1027.7hPa Calm   2.0mph /  3.2km/h 47% 0.00in /  0mm 0.0 W/m2
21:44 49.8 °F /  9.9 °C 30.4 °F /  -0.9 °C 30.35in /  1027.7hPa Calm   1.0mph /  1.6km/h 47% 0.00in /  0mm 0.0 W/m2
21:50 49.8 °F /  9.9 °C 30.4 °F /  -0.9 °C 30.35in /  1027.7hPa Calm   1.0mph /  1.6km/h 47% 0.00in /  0mm 0.0 W/m2
21:56 49.6 °F /  9.8 °C 30.7 °F /  -0.7 °C 30.35in /  1027.7hPa Calm     48% 0.00in /  0mm 0.0 W/m2
22:02 49.5 °F /  9.7 °C 30.0 °F /  -1.1 °C 30.35in /  1027.7hPa Calm   1.0mph /  1.6km/h 47% 0.00in /  0mm 0.0 W/m2
22:08 49.5 °F /  9.7 °C 30.6 °F /  -0.8 °C 30.35in /  1027.7hPa Calm   1.0mph /  1.6km/h 48% 0.00in /  0mm 0.0 W/m2
22:14 49.5 °F /  9.7 °C 30.6 °F /  -0.8 °C 30.35in /  1027.7hPa Calm     48% 0.00in /  0mm 0.0 W/m2
22:20 49.3 °F /  9.6 °C 30.4 °F /  -0.9 °C 30.35in /  1027.7hPa Calm     48% 0.00in /  0mm 0.0 W/m2
22:26 49.3 °F /  9.6 °C 30.4 °F /  -0.9 °C 30.35in /  1027.7hPa Calm   2.0mph /  3.2km/h 48% 0.00in /  0mm 0.0 W/m2
22:33 49.3 °F /  9.6 °C 30.4 °F /  -0.9 °C 30.35in /  1027.7hPa Calm     48% 0.00in /  0mm 0.0 W/m2
22:39 48.9 °F /  9.4 °C 30.6 °F /  -0.8 °C 30.35in /  1027.7hPa Calm     49% 0.00in /  0mm 0.0 W/m2
22:45 48.9 °F /  9.4 °C 30.6 °F /  -0.8 °C 30.35in /  1027.7hPa Calm     49% 0.00in /  0mm 0.0 W/m2
22:51 48.7 °F /  9.3 °C 30.4 °F /  -0.9 °C 30.35in /  1027.7hPa Calm     49% 0.00in /  0mm 0.0 W/m2
22:57 48.4 °F /  9.1 °C 30.6 °F /  -0.8 °C 30.35in /  1027.7hPa Calm     50% 0.00in /  0mm 0.0 W/m2
23:03 48.0 °F /  8.9 °C 30.7 °F /  -0.7 °C 30.35in /  1027.7hPa Calm     51% 0.00in /  0mm 0.0 W/m2
23:09 47.8 °F /  8.8 °C 30.6 °F /  -0.8 °C 30.35in /  1027.7hPa Calm     51% 0.00in /  0mm 0.0 W/m2
23:16 47.5 °F /  8.6 °C 30.2 °F /  -1 °C 30.35in /  1027.7hPa Calm     51% 0.00in /  0mm 0.0 W/m2
23:22 47.1 °F /  8.4 °C 30.4 °F /  -0.9 °C 30.35in /  1027.7hPa Calm     52% 0.00in /  0mm 0.0 W/m2
23:28 46.8 °F /  8.2 °C 30.6 °F /  -0.8 °C 30.35in /  1027.7hPa Calm     53% 0.00in /  0mm 0.0 W/m2
23:34 46.6 °F /  8.1 °C 30.4 °F /  -0.9 °C 30.35in /  1027.7hPa Calm     53% 0.00in /  0mm 0.0 W/m2
23:40 46.2 °F /  7.9 °C 30.0 °F /  -1.1 °C 30.35in /  1027.7hPa Calm     53% 0.00in /  0mm 0.0 W/m2
23:46 46.0 °F /  7.8 °C 30.4 °F /  -0.9 °C 30.35in /  1027.7hPa Calm     54% 0.00in /  0mm 0.0 W/m2
23:52 45.9 °F /  7.7 °C 30.2 °F /  -1 °C 30.35in /  1027.7hPa Calm     54% 0.00in /  0mm 0.0 W/m2
23:59 45.7 °F /  7.6 °C 30.4 °F /  -0.9 °C 30.35in /  1027.7hPa Calm     55% 0.00in /  0mm 0.0 W/m2
Olympia, Windhoek, Namibia
Compliments of Weather Underground - 3 mb